Time;durP1;ratioP1;P1;durP2;ratioP2;P2;SDS_P1;SDS_P2;PMS_P1;PMS_P2;Temp;Humidity;BMP_temperature;BMP_pressure;BME280_temperature;BME280_humidity;BME280_pressure;Samples;Min_cycle;Max_cycle;Signal;HPM_P1;HPM_P2
2021/07/10 00:00:44;;;;;;;17.42;11.10;;;;;;;20.21;51.89;101887.03;4937034;28;113997;-75
2021/07/10 00:03:11;;;;;;;17.92;11.93;;;;;;;20.19;52.04;101880.91;4917384;28;123914;-76
2021/07/10 00:05:38;;;;;;;19.25;12.90;;;;;;;20.15;51.99;101874.88;4918019;28;123725;-76
2021/07/10 00:08:05;;;;;;;17.55;11.63;;;;;;;20.14;52.16;101866.94;4919312;28;114515;-77
2021/07/10 00:10:32;;;;;;;18.00;11.98;;;;;;;20.12;52.26;101855.41;4916501;28;111924;-75
2021/07/10 00:13:00;;;;;;;17.88;12.05;;;;;;;20.10;52.17;101849.25;4935246;28;123899;-76
2021/07/10 00:15:27;;;;;;;18.33;12.15;;;;;;;20.10;52.30;101854.63;4934353;28;123555;-76
2021/07/10 00:17:55;;;;;;;17.67;11.45;;;;;;;20.11;52.29;101851.00;4935051;28;114120;-75
2021/07/10 00:20:22;;;;;;;20.20;12.52;;;;;;;20.11;52.40;101859.06;4933745;28;114693;-75
2021/07/10 00:22:49;;;;;;;19.45;12.25;;;;;;;20.11;52.57;101864.44;4933373;28;124728;-75
2021/07/10 00:25:18;;;;;;;18.13;12.32;;;;;;;20.11;52.71;101868.00;4936103;28;123704;-75
2021/07/10 00:27:46;;;;;;;19.10;12.05;;;;;;;20.11;52.76;101857.22;4921133;28;115546;-76
2021/07/10 00:30:17;;;;;;;17.35;12.15;;;;;;;20.11;52.92;101853.69;4901487;28;113238;-75
2021/07/10 00:32:44;;;;;;;18.48;11.80;;;;;;;20.08;52.87;101845.81;4932824;28;124528;-75
2021/07/10 00:35:12;;;;;;;18.58;12.65;;;;;;;20.07;52.95;101844.13;4936449;28;123577;-75
2021/07/10 00:37:39;;;;;;;18.58;12.40;;;;;;;20.06;53.19;101848.63;4916746;28;114220;-76
2021/07/10 00:40:08;;;;;;;19.27;12.32;;;;;;;20.07;52.86;101844.13;4932831;28;113819;-77
2021/07/10 00:42:36;;;;;;;22.10;12.60;;;;;;;20.08;53.10;101845.81;4934125;28;124358;-76
2021/07/10 00:45:07;;;;;;;19.23;12.55;;;;;;;20.08;53.42;101840.44;4931979;28;123834;-75
2021/07/10 00:47:35;;;;;;;22.23;12.73;;;;;;;20.11;53.41;101840.25;4917814;28;113147;-75
2021/07/10 00:50:13;;;;;;;18.75;12.40;;;;;;;20.11;53.23;101840.25;4919208;28;113512;-76
2021/07/10 00:52:41;;;;;;;19.55;12.63;;;;;;;20.13;53.25;101839.16;4929876;28;123310;-75
2021/07/10 00:55:09;;;;;;;22.02;13.75;;;;;;;20.11;53.18;101834.84;4918427;28;121754;-76
2021/07/10 00:57:37;;;;;;;20.98;13.90;;;;;;;20.07;53.17;101833.34;4903806;28;113480;-75
2021/07/10 01:00:16;;;;;;;19.20;13.25;;;;;;;20.01;53.11;101846.25;4937961;28;113834;-76
2021/07/10 01:02:47;;;;;;;21.08;13.00;;;;;;;20.00;53.32;101839.16;4935369;28;124816;-75
2021/07/10 01:05:21;;;;;;;20.20;13.20;;;;;;;19.99;53.34;101832.06;4916710;28;122756;-75
2021/07/10 01:07:49;;;;;;;22.05;14.48;;;;;;;19.98;52.94;101835.69;4935718;28;117298;-76
2021/07/10 01:10:16;;;;;;;18.58;12.70;;;;;;;19.98;53.30;101834.84;4916559;28;112653;-77
2021/07/10 01:12:47;;;;;;;20.77;12.93;;;;;;;19.97;53.56;101834.00;4939826;28;123741;-76
2021/07/10 01:15:15;;;;;;;21.20;13.93;;;;;;;19.98;53.26;101829.47;4936970;28;124229;-76
2021/07/10 01:17:44;;;;;;;21.02;12.68;;;;;;;19.98;53.33;101824.94;4937539;28;115287;-76
2021/07/10 01:20:14;;;;;;;19.27;13.45;;;;;;;19.98;53.68;101816.88;4937838;28;115608;-76
2021/07/10 01:22:42;;;;;;;20.40;12.93;;;;;;;19.98;53.40;101814.19;4924636;28;123369;-76
2021/07/10 01:25:12;;;;;;;19.05;13.20;;;;;;;19.99;53.88;101820.44;4917639;28;121703;-76
2021/07/10 01:27:40;;;;;;;20.75;14.20;;;;;;;19.98;53.54;101818.72;4922208;28;114284;-75
2021/07/10 01:30:12;;;;;;;20.98;13.77;;;;;;;19.97;53.42;101812.47;4903063;28;113137;-75
2021/07/10 01:32:41;;;;;;;21.48;13.82;;;;;;;19.96;53.60;101800.00;4939037;28;123152;-76
2021/07/10 01:35:09;;;;;;;18.45;13.35;;;;;;;19.96;53.69;101805.38;4938862;28;123904;-76
2021/07/10 01:37:41;;;;;;;20.08;12.50;;;;;;;19.95;53.55;101809.03;4938274;28;114260;-77
2021/07/10 01:40:11;;;;;;;21.05;13.85;;;;;;;19.91;53.60;101807.53;4938342;28;115147;-76
2021/07/10 01:42:39;;;;;;;20.90;13.25;;;;;;;19.89;53.57;101798.72;4923283;28;123998;-76
2021/07/10 01:45:07;;;;;;;23.65;13.73;;;;;;;19.87;53.73;101800.63;4919593;28;124596;-76
2021/07/10 01:47:35;;;;;;;19.58;13.40;;;;;;;19.85;53.62;101797.19;4924094;28;114248;-76
2021/07/10 01:50:05;;;;;;;20.17;13.40;;;;;;;19.84;53.62;101790.09;4939882;28;114660;-76
2021/07/10 01:52:33;;;;;;;22.77;14.27;;;;;;;19.82;53.44;101792.03;4919744;28;123474;-76
2021/07/10 01:55:04;;;;;;;21.55;13.48;;;;;;;19.80;53.65;101793.97;4920899;28;123010;-76
2021/07/10 01:57:31;;;;;;;19.60;13.70;;;;;;;19.78;53.72;101790.53;4920429;28;113657;-77
2021/07/10 01:59:58;;;;;;;21.15;14.38;;;;;;;19.76;53.75;101781.69;4920133;28;112951;-77
2021/07/10 02:02:25;;;;;;;22.40;14.30;;;;;;;19.73;53.62;101781.91;4939510;28;123985;-76
2021/07/10 02:04:52;;;;;;;18.30;13.10;;;;;;;19.70;53.88;101787.47;4906029;28;123207;-77
2021/07/10 02:07:19;;;;;;;17.08;12.63;;;;;;;19.67;53.78;101787.69;4938270;28;114921;-77
2021/07/10 02:09:47;;;;;;;18.85;12.80;;;;;;;19.63;54.01;101781.66;4938476;28;115369;-76
2021/07/10 02:12:16;;;;;;;17.80;12.68;;;;;;;19.60;53.94;101788.09;4943182;28;123693;-76
2021/07/10 02:14:43;;;;;;;18.85;12.27;;;;;;;19.57;54.03;101788.31;4939611;28;123252;-76
2021/07/10 02:17:10;;;;;;;21.27;13.27;;;;;;;19.54;54.02;101787.66;4941123;28;113832;-76
2021/07/10 02:19:38;;;;;;;18.60;12.55;;;;;;;19.51;54.04;101777.97;4938197;28;114084;-76
2021/07/10 02:22:06;;;;;;;19.85;13.02;;;;;;;19.50;54.02;101786.16;4940261;28;124006;-76
2021/07/10 02:24:33;;;;;;;21.65;12.75;;;;;;;19.48;54.12;101775.50;4940901;28;124299;-76
2021/07/10 02:27:01;;;;;;;18.35;13.13;;;;;;;19.45;54.46;101771.16;4922216;28;114353;-76
2021/07/10 02:29:28;;;;;;;20.10;13.32;;;;;;;19.45;54.48;101775.69;4903380;28;113874;-76
2021/07/10 02:31:55;;;;;;;19.95;13.43;;;;;;;19.43;54.40;101775.78;4922415;28;122939;-76
2021/07/10 02:34:22;;;;;;;21.88;13.90;;;;;;;19.41;54.60;101771.50;4940362;28;123657;-76
2021/07/10 02:36:49;;;;;;;20.85;13.65;;;;;;;19.42;54.55;101767.84;4939618;28;114313;-76
2021/07/10 02:39:17;;;;;;;21.63;13.45;;;;;;;19.40;54.65;101770.66;4938475;28;114519;-76
2021/07/10 02:41:44;;;;;;;22.83;14.00;;;;;;;19.40;54.38;101769.75;4921623;28;123798;-76
2021/07/10 02:44:12;;;;;;;21.35;14.02;;;;;;;19.40;54.75;101764.38;4941711;28;123579;-76
2021/07/10 02:46:39;;;;;;;18.75;13.85;;;;;;;19.40;54.91;101759.03;4944303;28;116768;-76
2021/07/10 02:49:06;;;;;;;20.77;12.63;;;;;;;19.41;54.71;101755.38;4941186;28;114958;-76
2021/07/10 02:51:33;;;;;;;21.05;13.75;;;;;;;19.41;54.74;101760.75;4939885;28;124265;-77
2021/07/10 02:54:00;;;;;;;18.77;13.05;;;;;;;19.41;54.83;101755.38;4941934;28;124352;-77
2021/07/10 02:56:27;;;;;;;21.27;12.95;;;;;;;19.40;54.66;101753.66;4925143;28;116152;-77
2021/07/10 02:58:54;;;;;;;18.35;12.75;;;;;;;19.41;54.75;101750.00;4923379;28;113867;-77
2021/07/10 03:01:21;;;;;;;17.10;12.23;;;;;;;19.40;54.79;101753.66;4920453;28;122945;-78
2021/07/10 03:03:50;;;;;;;21.17;12.73;;;;;;;19.41;54.84;101753.53;4932174;28;123091;-77
2021/07/10 03:06:18;;;;;;;21.38;13.48;;;;;;;19.41;54.98;101744.63;4938863;28;114270;-78
2021/07/10 03:08:45;;;;;;;20.08;13.40;;;;;;;19.40;54.76;101748.28;4923358;28;113665;-77
2021/07/10 03:11:13;;;;;;;21.42;13.45;;;;;;;19.41;55.14;101739.25;4903747;28;123544;-76
2021/07/10 03:13:41;;;;;;;22.38;14.07;;;;;;;19.40;55.21;101737.53;4918689;28;122549;-76
2021/07/10 03:16:08;;;;;;;18.15;12.63;;;;;;;19.40;55.02;101733.03;4921020;28;114333;-75
2021/07/10 03:18:35;;;;;;;19.70;12.50;;;;;;;19.40;55.00;101737.53;4940278;28;113976;-76
2021/07/10 03:21:03;;;;;;;20.58;13.50;;;;;;;19.40;55.17;101724.09;4920867;28;124074;-75
2021/07/10 03:23:30;;;;;;;20.35;12.88;;;;;;;19.40;55.05;101726.78;4919763;28;124810;-75
2021/07/10 03:25:57;;;;;;;20.85;12.55;;;;;;;19.40;55.17;101726.78;4933806;28;114498;-76
2021/07/10 03:28:24;;;;;;;20.08;12.65;;;;;;;19.40;55.02;101726.78;4935197;28;113993;-76
2021/07/10 03:30:53;;;;;;;19.73;13.52;;;;;;;19.39;55.16;101725.06;4921636;28;123330;-77
2021/07/10 03:33:21;;;;;;;19.58;13.20;;;;;;;19.39;55.04;101725.06;4938968;28;123742;-75
2021/07/10 03:35:49;;;;;;;17.48;12.60;;;;;;;19.39;55.18;101731.31;4924652;28;113670;-75
2021/07/10 03:38:16;;;;;;;20.73;13.60;;;;;;;19.39;55.18;101725.06;4923113;28;113886;-76
2021/07/10 03:40:44;;;;;;;18.10;12.55;;;;;;;19.39;55.35;101717.03;4934396;28;123953;-76
2021/07/10 03:43:11;;;;;;;20.27;12.52;;;;;;;19.40;55.23;101729.47;4934002;28;122471;-77
2021/07/10 03:45:38;;;;;;;18.38;13.00;;;;;;;19.39;55.19;101731.31;4916722;28;115686;-76
2021/07/10 03:48:05;;;;;;;21.02;13.43;;;;;;;19.39;55.18;101719.69;4923328;28;112978;-75
2021/07/10 03:50:33;;;;;;;19.75;13.32;;;;;;;19.39;55.16;101719.69;4936273;28;123807;-76
2021/07/10 03:53:00;;;;;;;19.88;13.00;;;;;;;19.38;55.36;101717.97;4919639;28;123918;-77
2021/07/10 03:55:30;;;;;;;18.23;12.68;;;;;;;19.39;55.30;101719.69;4942380;28;114358;-75
2021/07/10 03:57:57;;;;;;;19.08;13.02;;;;;;;19.38;55.33;101717.97;4936438;28;114015;-75
2021/07/10 04:00:24;;;;;;;19.55;13.45;;;;;;;19.39;55.52;101714.31;4909108;28;121599;-76
2021/07/10 04:02:51;;;;;;;18.88;12.82;;;;;;;19.39;55.44;101714.31;4933875;28;122942;-76
2021/07/10 04:05:19;;;;;;;21.85;13.93;;;;;;;19.37;55.38;101721.63;4920854;28;114116;-75
2021/07/10 04:07:46;;;;;;;22.50;13.95;;;;;;;19.38;55.58;101707.22;4918161;28;112585;-75
2021/07/10 04:10:14;;;;;;;19.70;13.50;;;;;;;19.38;55.62;101724.22;4900537;28;123309;-76
2021/07/10 04:12:43;;;;;;;23.40;13.27;;;;;;;19.37;55.54;101710.88;4934878;28;123715;-76
2021/07/10 04:15:13;;;;;;;18.20;13.07;;;;;;;19.39;55.82;101717.03;4941409;28;114236;-76
2021/07/10 04:17:41;;;;;;;19.52;13.07;;;;;;;19.41;55.68;101717.78;4921511;28;113741;-77
2021/07/10 04:20:09;;;;;;;21.23;13.63;;;;;;;19.42;55.93;101719.47;4923670;28;123110;-77
2021/07/10 04:22:37;;;;;;;23.30;15.18;;;;;;;19.44;55.99;101717.56;4921111;28;122621;-76
2021/07/10 04:25:06;;;;;;;21.90;14.90;;;;;;;19.44;56.42;101720.25;4909622;28;113299;-77
2021/07/10 04:27:34;;;;;;;21.38;14.27;;;;;;;19.46;56.23;101715.63;4939489;28;113942;-76
2021/07/10 04:30:03;;;;;;;21.27;15.30;;;;;;;19.47;56.22;101722.72;4917683;28;122341;-77
2021/07/10 04:32:30;;;;;;;22.70;15.45;;;;;;;19.50;56.47;101717.13;4904529;28;123122;-77
2021/07/10 04:34:57;;;;;;;23.80;15.98;;;;;;;19.52;56.53;101715.19;4919096;28;115504;-76
2021/07/10 04:37:25;;;;;;;23.10;15.40;;;;;;;19.56;56.77;101716.72;4949063;28;114601;-75
2021/07/10 04:39:52;;;;;;;22.90;15.63;;;;;;;19.60;56.70;101718.22;4917865;28;122780;-76
2021/07/10 04:42:21;;;;;;;25.40;15.30;;;;;;;19.63;56.60;101718.00;4938454;28;123605;-75
2021/07/10 04:44:48;;;;;;;24.02;16.05;;;;;;;19.70;56.68;101712.19;4939802;28;114648;-76
2021/07/10 04:47:18;;;;;;;27.73;17.85;;;;;;;19.75;56.69;101718.16;4938894;28;114329;-76
2021/07/10 04:49:45;;;;;;;30.48;18.55;;;;;;;19.81;56.78;101723.09;4937828;28;123685;-76
2021/07/10 04:52:12;;;;;;;31.50;18.98;;;;;;;19.87;56.94;101719.97;4905716;28;123087;-75
2021/07/10 04:54:40;;;;;;;31.60;19.10;;;;;;;19.95;57.04;101720.31;4925939;28;113667;-76
2021/07/10 04:57:07;;;;;;;33.17;19.48;;;;;;;20.02;56.85;101724.28;4944747;28;113903;-76
2021/07/10 04:59:34;;;;;;;32.67;19.13;;;;;;;20.08;57.07;101716.72;4930702;28;123294;-76
2021/07/10 05:02:01;;;;;;;31.65;19.38;;;;;;;20.15;57.13;101712.63;4931450;28;122545;-75
2021/07/10 05:04:28;;;;;;;33.33;20.58;;;;;;;20.21;57.18;101712.19;4942478;28;114317;-75
2021/07/10 05:06:55;;;;;;;37.20;21.65;;;;;;;20.28;57.17;101723.38;4940303;28;114985;-76
2021/07/10 05:09:23;;;;;;;37.83;20.77;;;;;;;20.34;57.19;101713.03;4942688;28;124518;-76
2021/07/10 05:11:50;;;;;;;35.80;20.75;;;;;;;20.39;57.23;101710.00;4945215;28;124444;-76
2021/07/10 05:14:17;;;;;;;36.88;22.15;;;;;;;20.46;57.30;101705.06;4921519;28;114124;-76
2021/07/10 05:16:44;;;;;;;38.78;21.70;;;;;;;20.52;57.43;101710.81;4921358;28;113721;-76
2021/07/10 05:19:11;;;;;;;42.20;23.70;;;;;;;20.62;57.39;101716.41;4940537;28;124381;-76
2021/07/10 05:21:38;;;;;;;43.17;22.85;;;;;;;20.70;57.33;101714.03;4926941;28;124169;-76
2021/07/10 05:24:06;;;;;;;37.92;23.55;;;;;;;20.76;57.35;101708.19;4924017;28;114695;-76
2021/07/10 05:26:33;;;;;;;41.65;24.33;;;;;;;20.86;57.37;101710.19;4942515;28;114906;-76
2021/07/10 05:29:01;;;;;;;41.33;24.02;;;;;;;20.93;57.44;101708.78;4946865;28;124341;-76
2021/07/10 05:31:28;;;;;;;39.83;24.70;;;;;;;21.03;57.44;101704.41;4923021;28;122752;-75
2021/07/10 05:33:56;;;;;;;48.95;25.48;;;;;;;21.11;57.41;101699.28;4939390;28;114231;-76
2021/07/10 05:36:23;;;;;;;43.22;24.52;;;;;;;21.19;57.15;101704.97;4945791;28;114682;-76
2021/07/10 05:38:50;;;;;;;39.33;24.60;;;;;;;21.28;57.27;101716.00;4910395;28;123380;-76
2021/07/10 05:41:17;;;;;;;41.97;25.13;;;;;;;21.36;57.38;101710.88;4946324;28;124203;-76
2021/07/10 05:43:45;;;;;;;43.60;23.92;;;;;;;21.42;57.12;101715.81;4929920;28;114212;-77
2021/07/10 05:46:12;;;;;;;45.13;24.73;;;;;;;21.46;57.22;101711.94;4943415;28;114538;-76
2021/07/10 05:48:39;;;;;;;41.00;23.83;;;;;;;21.50;57.28;101708.00;4925154;28;125661;-77
2021/07/10 05:51:07;;;;;;;43.33;23.27;;;;;;;21.57;57.27;101717.34;4944270;28;122771;-76
2021/07/10 05:53:34;;;;;;;44.38;23.60;;;;;;;21.63;57.00;101717.84;4931524;28;113100;-75
2021/07/10 05:56:02;;;;;;;41.20;22.77;;;;;;;21.70;56.80;101713.66;4944201;28;112914;-76
2021/07/10 05:58:29;;;;;;;39.70;22.73;;;;;;;21.76;57.06;101707.81;4921964;28;122438;-76
2021/07/10 06:00:56;;;;;;;41.78;22.75;;;;;;;21.84;56.93;101716.16;4945956;28;124312;-77
2021/07/10 06:03:23;;;;;;;39.90;23.92;;;;;;;21.92;56.83;101712.84;4945572;28;114509;-76
2021/07/10 06:05:50;;;;;;;41.92;23.20;;;;;;;21.95;56.67;101708.06;4944877;28;113336;-77
2021/07/10 06:08:17;;;;;;;37.70;22.25;;;;;;;22.01;56.76;101716.66;4912668;28;123545;-76
2021/07/10 06:10:44;;;;;;;41.08;22.85;;;;;;;22.05;56.53;101712.72;4941150;28;123746;-76
2021/07/10 06:13:12;;;;;;;41.92;22.55;;;;;;;22.10;56.56;101699.75;4937928;28;115215;-76
2021/07/10 06:15:39;;;;;;;40.47;22.35;;;;;;;22.16;56.71;101704.63;4933613;28;113991;-76
2021/07/10 06:18:06;;;;;;;37.15;21.85;;;;;;;22.20;56.54;101700.69;4935080;28;124547;-76
2021/07/10 06:20:34;;;;;;;35.90;20.88;;;;;;;22.24;56.33;101707.56;4922168;28;123405;-76
2021/07/10 06:23:05;;;;;;;36.58;20.02;;;;;;;22.29;56.24;101704.53;4920176;28;114360;-76
2021/07/10 06:25:34;;;;;;;36.92;20.33;;;;;;;22.33;56.26;101706.00;4924381;28;113639;-76
2021/07/10 06:28:03;;;;;;;34.42;19.75;;;;;;;22.37;56.14;101701.22;4922083;28;123583;-76
2021/07/10 06:30:31;;;;;;;35.30;19.77;;;;;;;22.40;56.18;101696.44;4919768;28;122886;-76
2021/07/10 06:32:58;;;;;;;35.85;20.30;;;;;;;22.44;56.04;101707.84;4904741;28;114484;-76
2021/07/10 06:35:25;;;;;;;38.45;20.65;;;;;;;22.47;56.11;101699.47;4920884;28;115691;-76
2021/07/10 06:37:52;;;;;;;36.58;20.23;;;;;;;22.51;55.84;101704.50;4913733;28;123354;-77
2021/07/10 06:40:19;;;;;;;38.00;20.40;;;;;;;22.55;55.69;101710.50;4916423;28;123926;-76
2021/07/10 06:42:47;;;;;;;37.55;20.10;;;;;;;22.55;55.69;101705.13;4939530;28;114096;-77
2021/07/10 06:45:17;;;;;;;34.70;19.85;;;;;;;22.56;55.75;101701.41;4919077;28;112825;-78
2021/07/10 06:47:45;;;;;;;35.40;19.52;;;;;;;22.59;55.70;101700.31;4936371;28;123635;-77
2021/07/10 06:50:16;;;;;;;35.67;20.02;;;;;;;22.62;55.69;101700.94;4936373;28;122477;-78
2021/07/10 06:52:45;;;;;;;36.25;19.50;;;;;;;22.66;55.50;101690.69;4917709;28;114367;-77
2021/07/10 06:55:13;;;;;;;36.88;20.33;;;;;;;22.67;55.59;101693.28;4936136;28;114352;-77
2021/07/10 06:57:41;;;;;;;49.45;23.75;;;;;;;22.73;55.62;101692.78;4919453;28;123822;-77
2021/07/10 07:00:15;;;;;;;40.08;21.17;;;;;;;22.81;55.79;101704.78;4941604;28;123085;-77
2021/07/10 07:02:43;;;;;;;35.90;20.27;;;;;;;22.89;55.38;101696.91;4919569;28;114780;-77
2021/07/10 07:05:11;;;;;;;36.33;20.23;;;;;;;22.95;55.50;101701.78;4902777;28;114139;-77
2021/07/10 07:07:39;;;;;;;35.40;20.58;;;;;;;23.02;55.36;101703.00;4922791;28;123085;-77
2021/07/10 07:10:08;;;;;;;40.63;22.23;;;;;;;23.09;55.38;101703.34;4921327;28;122746;-77
2021/07/10 07:12:35;;;;;;;39.35;20.90;;;;;;;23.16;55.39;101698.28;4937831;28;113526;-76
2021/07/10 07:15:06;;;;;;;38.58;21.17;;;;;;;23.27;55.43;101698.25;4941387;28;113851;-76
2021/07/10 07:17:33;;;;;;;38.83;21.42;;;;;;;23.36;55.27;101710.09;4903590;28;122923;-76
2021/07/10 07:20:00;;;;;;;37.08;20.73;;;;;;;23.43;55.23;101709.47;4904604;28;123163;-77
2021/07/10 07:22:28;;;;;;;36.28;20.65;;;;;;;23.51;54.98;101712.34;4931797;28;114786;-77
2021/07/10 07:24:55;;;;;;;34.22;19.90;;;;;;;23.60;54.90;101707.13;4921366;28;114068;-77
2021/07/10 07:27:22;;;;;;;36.72;19.83;;;;;;;23.64;54.48;101708.56;4920377;28;124089;-76
2021/07/10 07:29:49;;;;;;;33.78;18.90;;;;;;;23.71;54.33;101709.75;4917422;28;123434;-77
2021/07/10 07:32:16;;;;;;;32.22;18.35;;;;;;;23.79;54.21;101706.41;4935626;28;113971;-77
2021/07/10 07:34:47;;;;;;;30.65;17.17;;;;;;;23.84;53.95;101698.75;4921115;28;114034;-77
2021/07/10 07:37:16;;;;;;;30.02;17.73;;;;;;;23.90;53.78;101699.09;4938607;28;123393;-77
2021/07/10 07:39:47;;;;;;;27.58;16.27;;;;;;;23.97;53.61;101698.53;4929121;28;123147;-77
2021/07/10 07:42:15;;;;;;;23.05;13.40;;;;;;;24.01;52.96;101698.09;4917373;28;112179;-76
2021/07/10 07:44:43;;;;;;;26.08;14.85;;;;;;;24.08;52.61;101690.31;4931472;28;112976;-77
2021/07/10 07:47:16;;;;;;;25.95;15.15;;;;;;;24.15;52.62;101696.91;4948136;28;123686;-76
2021/07/10 07:49:45;;;;;;;24.83;14.30;;;;;;;24.20;52.13;101700.03;4917521;28;123135;-77
2021/07/10 07:52:12;;;;;;;20.25;12.27;;;;;;;24.23;51.69;101699.75;4932682;28;115251;-77
2021/07/10 07:54:40;;;;;;;19.35;12.35;;;;;;;24.28;51.53;101700.22;4906857;28;114905;-77
2021/07/10 07:57:07;;;;;;;15.80;10.45;;;;;;;24.32;51.14;101691.81;4934254;28;123761;-77
2021/07/10 07:59:35;;;;;;;15.88;9.65;;;;;;;24.35;50.76;101692.38;4935518;28;124499;-77
2021/07/10 08:02:02;;;;;;;19.67;11.65;;;;;;;24.41;50.79;101688.25;4911750;28;113515;-77
2021/07/10 08:04:29;;;;;;;17.65;11.05;;;;;;;24.50;51.08;101690.13;4931192;28;114184;-76
2021/07/10 08:06:56;;;;;;;18.45;11.10;;;;;;;24.60;50.72;101685.66;4943071;28;123996;-76
2021/07/10 08:09:24;;;;;;;16.95;10.88;;;;;;;24.66;50.51;101682.38;4945193;28;124080;-77
2021/07/10 08:11:51;;;;;;;16.75;10.70;;;;;;;24.76;50.16;101678.81;4949339;23;114014;-61
2021/07/10 08:14:18;;;;;;;16.05;10.43;;;;;;;24.87;49.80;101675.97;4943855;28;114337;-61
2021/07/10 08:16:45;;;;;;;15.70;10.13;;;;;;;24.99;49.64;101674.81;4940332;28;124813;-62
2021/07/10 08:19:13;;;;;;;16.10;9.35;;;;;;;25.09;49.20;101668.53;4935342;28;124280;-61
2021/07/10 08:21:41;;;;;;;15.70;9.82;;;;;;;25.16;49.21;101664.25;4919981;28;113226;-61
2021/07/10 08:24:08;;;;;;;16.63;9.50;;;;;;;25.24;49.10;101661.69;4928348;28;114072;-61
2021/07/10 08:26:36;;;;;;;13.55;8.55;;;;;;;25.34;48.52;101662.53;4939698;28;124167;-61
2021/07/10 08:29:05;;;;;;;13.25;8.30;;;;;;;25.37;47.79;101656.84;4931110;28;123248;-62
2021/07/10 08:31:34;;;;;;;12.05;8.45;;;;;;;25.37;47.33;101666.81;4923035;28;114427;-62
2021/07/10 08:34:02;;;;;;;13.15;8.98;;;;;;;25.38;47.47;101665.81;4927030;28;114290;-62
2021/07/10 08:36:29;;;;;;;8.82;7.18;;;;;;;25.41;47.22;101663.66;4925171;28;123313;-62
2021/07/10 08:38:56;;;;;;;12.70;7.88;;;;;;;25.44;46.81;101657.94;4923383;28;123940;-62
2021/07/10 08:41:24;;;;;;;12.55;7.97;;;;;;;25.49;47.12;101648.53;4918328;28;115617;-62
2021/07/10 08:43:52;;;;;;;11.70;7.63;;;;;;;25.52;46.60;101653.63;4915684;28;115069;-63
2021/07/10 08:46:20;;;;;;;13.93;7.75;;;;;;;25.55;46.97;101658.78;4937606;28;124819;-62
2021/07/10 08:48:48;;;;;;;12.23;8.20;;;;;;;25.59;46.65;101654.75;4939123;28;124282;-62
2021/07/10 08:51:16;;;;;;;12.30;7.82;;;;;;;25.63;46.85;101656.19;4929850;28;113729;-62
2021/07/10 08:53:43;;;;;;;13.07;8.50;;;;;;;25.66;46.76;101655.88;4920473;28;114368;-63
2021/07/10 08:56:10;;;;;;;10.65;7.25;;;;;;;25.72;46.63;101654.44;4923526;28;124982;-62
2021/07/10 08:58:38;;;;;;;13.20;7.68;;;;;;;25.74;46.01;101657.84;4940738;28;122835;-62
2021/07/10 09:01:08;;;;;;;9.93;7.40;;;;;;;25.73;46.31;101657.00;4938357;28;113843;-62
2021/07/10 09:03:36;;;;;;;10.02;6.70;;;;;;;25.75;45.47;101655.00;4929146;28;113566;-62
2021/07/10 09:06:03;;;;;;;10.68;7.32;;;;;;;25.77;45.26;101653.00;4925907;28;124499;-63
2021/07/10 09:08:31;;;;;;;12.38;7.68;;;;;;;25.74;45.64;101650.56;4936661;28;124778;-63
2021/07/10 09:10:59;;;;;;;10.93;7.10;;;;;;;25.75;45.34;101644.16;4919961;28;114569;-62
2021/07/10 09:13:36;;;;;;;11.38;7.32;;;;;;;25.79;45.12;101645.56;4929841;28;114405;-62
2021/07/10 09:16:06;;;;;;;12.95;7.53;;;;;;;25.86;45.14;101640.38;4915669;28;125028;-62
2021/07/10 09:18:41;;;;;;;11.02;7.28;;;;;;;25.93;45.16;101640.66;4922014;28;124222;-62
2021/07/10 09:21:10;;;;;;;12.30;8.00;;;;;;;25.97;45.25;101642.06;4928218;28;114441;-62
2021/07/10 09:23:41;;;;;;;15.30;8.13;;;;;;;26.01;45.01;101632.59;4922822;28;114052;-63
2021/07/10 09:26:38;;;;;;;9.52;6.18;;;;;;;26.08;45.41;101639.16;4925166;28;124290;-62
2021/07/10 09:29:13;;;;;;;9.57;6.57;;;;;;;26.13;44.73;101631.41;4941699;28;123861;-63
2021/07/10 09:31:42;;;;;;;;;;;;;;;26.17;45.24;101638.25;4952507;28;115177;-63
2021/07/10 09:34:14;;;;;;;17.38;8.35;;;;;;;26.22;44.61;101627.78;4918405;28;115151;-63
2021/07/10 09:37:01;;;;;;;15.15;8.43;;;;;;;26.22;45.25;101630.50;4920972;28;123874;-63
2021/07/10 09:39:41;;;;;;;13.50;8.52;;;;;;;26.27;44.69;101626.47;4940131;28;123573;-63
2021/07/10 09:42:08;;;;;;;12.13;8.15;;;;;;;26.31;44.71;101627.88;4922830;28;114211;-63
2021/07/10 09:44:48;;;;;;;12.48;8.57;;;;;;;26.30;44.85;101632.44;4933563;28;113173;-63
2021/07/10 09:47:23;;;;;;;13.85;8.55;;;;;;;26.33;44.69;101625.84;4921418;28;124015;-63
2021/07/10 09:49:51;;;;;;;12.93;8.82;;;;;;;26.34;44.62;101633.00;4926372;28;123782;-65
2021/07/10 09:52:21;;;;;;;17.30;9.93;;;;;;;26.36;45.01;101626.41;4922008;28;114535;-63
2021/07/10 09:54:53;;;;;;;14.57;9.93;;;;;;;26.41;44.82;101628.66;4927398;28;114347;-63
2021/07/10 09:57:25;;;;;;;16.88;10.45;;;;;;;26.44;44.67;101622.91;4923407;28;124196;-63
2021/07/10 09:59:57;;;;;;;17.52;10.50;;;;;;;26.49;44.42;101619.75;4933553;28;123449;-63
2021/07/10 10:02:28;;;;;;;14.80;10.32;;;;;;;26.54;44.62;101621.00;4936221;28;114220;-63
2021/07/10 10:05:16;;;;;;;17.35;10.65;;;;;;;26.59;44.94;101626.81;4931708;28;114322;-63
2021/07/10 10:07:54;;;;;;;15.13;9.40;;;;;;;26.66;44.79;101620.78;4938836;28;124084;-63
2021/07/10 10:10:25;;;;;;;15.98;9.40;;;;;;;26.72;44.72;101614.72;4933700;28;124288;-63
2021/07/10 10:13:15;;;;;;;17.05;10.10;;;;;;;26.79;44.57;101615.81;4940670;28;114596;-63
2021/07/10 10:15:48;;;;;;;15.43;9.82;;;;;;;26.86;44.46;101613.31;4938288;28;114795;-63
2021/07/10 10:18:20;;;;;;;14.68;10.18;;;;;;;26.91;44.15;101614.53;4930996;28;124780;-63
2021/07/10 10:20:48;;;;;;;14.68;9.68;;;;;;;26.95;44.01;101610.47;4919262;28;124158;-63
2021/07/10 10:23:17;;;;;;;15.77;10.15;;;;;;;27.06;43.94;101616.69;4920801;28;115527;-63
2021/07/10 10:25:45;;;;;;;14.40;9.98;;;;;;;27.11;44.22;101600.78;4914752;28;115085;-63
2021/07/10 10:28:21;;;;;;;16.63;9.35;;;;;;;27.16;44.13;101606.56;4924377;28;124751;-63
2021/07/10 10:30:50;;;;;;;14.60;9.52;;;;;;;27.25;44.65;101600.19;4916585;28;123965;-64
2021/07/10 10:33:18;;;;;;;16.73;11.02;;;;;;;27.34;43.89;101592.94;4920277;28;115374;-63
2021/07/10 10:35:47;;;;;;;14.38;10.05;;;;;;;27.37;43.50;101593.47;4920858;28;113852;-63
2021/07/10 10:38:16;;;;;;;14.45;8.93;;;;;;;27.42;43.32;101590.25;4914228;28;124647;-62
2021/07/10 10:40:44;;;;;;;13.68;7.70;;;;;;;27.48;43.41;101588.75;4913858;28;123718;-63
2021/07/10 10:43:15;;;;;;;13.25;8.23;;;;;;;27.53;42.96;101591.84;4931789;28;113363;-63
2021/07/10 10:45:44;;;;;;;14.43;8.32;;;;;;;27.55;42.67;101596.13;4914968;28;114440;-63
2021/07/10 10:48:16;;;;;;;11.35;7.60;;;;;;;27.58;42.70;101592.22;4931035;28;124221;-63
2021/07/10 10:50:43;;;;;;;14.23;8.68;;;;;;;27.63;42.63;101589.00;4913523;28;124578;-62
2021/07/10 10:53:23;;;;;;;12.65;8.55;;;;;;;27.64;42.73;101591.56;4928776;28;114606;-63
2021/07/10 10:55:50;;;;;;;13.15;8.57;;;;;;;27.66;42.60;101581.38;4916925;28;114162;-63
2021/07/10 10:58:19;;;;;;;13.23;8.68;;;;;;;27.66;42.11;101578.66;4922262;28;124093;-63
2021/07/10 11:00:56;;;;;;;12.27;8.48;;;;;;;27.67;41.91;101577.66;4920740;28;123862;-63
2021/07/10 11:03:33;;;;;;;14.38;7.65;;;;;;;27.71;42.00;101568.13;4924512;28;114318;-63
2021/07/10 11:06:00;;;;;;;12.18;7.63;;;;;;;27.76;42.28;101565.78;4932358;28;114553;-63
2021/07/10 11:08:50;;;;;;;12.30;7.60;;;;;;;27.89;42.21;101561.75;4929836;28;97756;-61
2021/07/10 11:11:19;;;;;;;11.52;7.63;;;;;;;27.94;41.40;101556.66;4927367;28;124290;-61